sensor_id;sensor_type;location;lat;lon;timestamp;pressure;altitude;pressure_sealevel;temperature;humidity
73280;BME280;61511;49.286;9.700;2022-07-23T20:40:46;97549.78;;;23.50;48.32
73280;BME280;61511;49.286;9.700;2022-07-23T20:43:15;97548.94;;;24.07;51.27
73280;BME280;61511;49.286;9.700;2022-07-23T20:45:43;97557.97;;;23.21;48.69
73280;BME280;61511;49.286;9.700;2022-07-23T20:48:11;97557.59;;;22.69;49.92
73280;BME280;61511;49.286;9.700;2022-07-23T20:50:39;97559.13;;;22.28;51.42
73280;BME280;61511;49.286;9.700;2022-07-23T20:53:08;97558.97;;;21.95;52.68
73280;BME280;61511;49.286;9.700;2022-07-23T20:55:36;97566.13;;;21.74;52.86
73280;BME280;61511;49.286;9.700;2022-07-23T20:58:06;97563.81;;;21.55;53.38
73280;BME280;61511;49.286;9.700;2022-07-23T21:00:34;97563.03;;;21.38;54.13
73280;BME280;61511;49.286;9.700;2022-07-23T21:03:02;97571.63;;;21.31;54.78
73280;BME280;61511;49.286;9.700;2022-07-23T21:05:30;97568.63;;;21.24;54.74
73280;BME280;61511;49.286;9.700;2022-07-23T21:07:58;97566.72;;;21.16;55.17
73280;BME280;61511;49.286;9.700;2022-07-23T21:10:26;97562.59;;;21.10;55.31
73280;BME280;61511;49.286;9.700;2022-07-23T21:12:54;97566.06;;;21.10;54.93
73280;BME280;61511;49.286;9.700;2022-07-23T21:15:23;97564.47;;;21.09;54.36
73280;BME280;61511;49.286;9.700;2022-07-23T21:17:51;97568.59;;;21.07;55.08
73280;BME280;61511;49.286;9.700;2022-07-23T21:20:19;97568.28;;;21.00;55.53
73280;BME280;61511;49.286;9.700;2022-07-23T21:22:47;97563.09;;;20.95;54.82
73280;BME280;61511;49.286;9.700;2022-07-23T21:25:15;97562.28;;;20.85;54.88
73280;BME280;61511;49.286;9.700;2022-07-23T21:27:44;97556.16;;;20.85;55.31
73280;BME280;61511;49.286;9.700;2022-07-23T21:30:13;97568.75;;;20.76;55.51
73280;BME280;61511;49.286;9.700;2022-07-23T21:32:45;97574.75;;;20.73;56.39
73280;BME280;61511;49.286;9.700;2022-07-23T21:35:29;97572.69;;;20.70;57.12
73280;BME280;61511;49.286;9.700;2022-07-23T21:37:58;97569.22;;;20.61;57.44
73280;BME280;61511;49.286;9.700;2022-07-23T21:40:26;97574.75;;;20.56;57.34
73280;BME280;61511;49.286;9.700;2022-07-23T21:42:54;97575.34;;;20.53;57.39
73280;BME280;61511;49.286;9.700;2022-07-23T21:45:23;97575.03;;;20.45;57.89
73280;BME280;61511;49.286;9.700;2022-07-23T21:47:52;97584.16;;;20.44;57.84
73280;BME280;61511;49.286;9.700;2022-07-23T21:50:20;97575.47;;;20.39;58.45
73280;BME280;61511;49.286;9.700;2022-07-23T21:52:48;97578.13;;;20.30;59.31
73280;BME280;61511;49.286;9.700;2022-07-23T21:55:16;97575.91;;;20.24;58.98
73280;BME280;61511;49.286;9.700;2022-07-23T21:57:44;97583.00;;;20.20;58.96
73280;BME280;61511;49.286;9.700;2022-07-23T22:00:17;97575.41;;;20.13;59.52
73280;BME280;61511;49.286;9.700;2022-07-23T22:02:47;97577.78;;;20.15;59.41
73280;BME280;61511;49.286;9.700;2022-07-23T22:05:17;97579.47;;;20.10;59.53
73280;BME280;61511;49.286;9.700;2022-07-23T22:07:53;97579.31;;;20.07;59.56
73280;BME280;61511;49.286;9.700;2022-07-23T22:10:27;97583.09;;;20.06;59.47
73280;BME280;61511;49.286;9.700;2022-07-23T22:13:02;97589.25;;;20.06;58.97
73280;BME280;61511;49.286;9.700;2022-07-23T22:15:31;97581.50;;;20.05;58.76
73280;BME280;61511;49.286;9.700;2022-07-23T22:18:01;97593.81;;;20.06;58.63
73280;BME280;61511;49.286;9.700;2022-07-23T22:20:33;97579.91;;;20.04;60.06
73280;BME280;61511;49.286;9.700;2022-07-23T22:23:03;97588.44;;;20.06;59.57
73280;BME280;61511;49.286;9.700;2022-07-23T22:25:34;97593.34;;;20.13;60.18
73280;BME280;61511;49.286;9.700;2022-07-23T22:28:04;97586.72;;;20.10;59.29
73280;BME280;61511;49.286;9.700;2022-07-23T22:30:32;97596.19;;;20.16;59.14
73280;BME280;61511;49.286;9.700;2022-07-23T22:33:00;97589.25;;;20.15;59.11
73280;BME280;61511;49.286;9.700;2022-07-23T22:35:28;97595.41;;;20.16;58.68
73280;BME280;61511;49.286;9.700;2022-07-23T22:37:57;97595.09;;;20.17;58.76
73280;BME280;61511;49.286;9.700;2022-07-23T22:40:25;97597.47;;;20.19;58.83
73280;BME280;61511;49.286;9.700;2022-07-23T22:43:08;97597.78;;;20.17;59.20
73280;BME280;61511;49.286;9.700;2022-07-23T22:45:37;97590.84;;;20.16;59.59
73280;BME280;61511;49.286;9.700;2022-07-23T22:48:05;97591.31;;;20.18;58.96
73280;BME280;61511;49.286;9.700;2022-07-23T22:50:34;97589.25;;;20.15;59.64
73280;BME280;61511;49.286;9.700;2022-07-23T22:53:03;97587.38;;;20.16;59.38
73280;BME280;61511;49.286;9.700;2022-07-23T22:55:32;97596.03;;;20.13;58.90
73280;BME280;61511;49.286;9.700;2022-07-23T22:58:02;97588.94;;;20.17;59.00
73280;BME280;61511;49.286;9.700;2022-07-23T23:00:32;97595.75;;;20.14;59.10
73280;BME280;61511;49.286;9.700;2022-07-23T23:03:00;97594.63;;;20.15;59.23
73280;BME280;61511;49.286;9.700;2022-07-23T23:05:29;97590.19;;;20.10;59.71
73280;BME280;61511;49.286;9.700;2022-07-23T23:07:57;97588.94;;;20.08;59.95
73280;BME280;61511;49.286;9.700;2022-07-23T23:10:25;97589.69;;;20.00;60.32
73280;BME280;61511;49.286;9.700;2022-07-23T23:12:53;97593.09;;;19.92;60.88
73280;BME280;61511;49.286;9.700;2022-07-23T23:15:21;97592.00;;;19.93;59.98
73280;BME280;61511;49.286;9.700;2022-07-23T23:17:50;97590.25;;;19.88;60.02
73280;BME280;61511;49.286;9.700;2022-07-23T23:20:18;97585.22;;;19.87;60.00
73280;BME280;61511;49.286;9.700;2022-07-23T23:22:46;97584.25;;;19.83;60.13
73280;BME280;61511;49.286;9.700;2022-07-23T23:25:14;97591.63;;;19.77;60.25
73280;BME280;61511;49.286;9.700;2022-07-23T23:27:42;97590.25;;;19.80;60.05
73280;BME280;61511;49.286;9.700;2022-07-23T23:30:10;97588.22;;;19.85;59.17
73280;BME280;61511;49.286;9.700;2022-07-23T23:32:39;97584.25;;;19.83;58.77
73280;BME280;61511;49.286;9.700;2022-07-23T23:35:09;97584.13;;;19.88;59.07
73280;BME280;61511;49.286;9.700;2022-07-23T23:37:37;97589.34;;;19.93;58.32
73280;BME280;61511;49.286;9.700;2022-07-23T23:40:06;97582.28;;;19.97;58.46
73280;BME280;61511;49.286;9.700;2022-07-23T23:42:34;97593.78;;;19.97;58.37
73280;BME280;61511;49.286;9.700;2022-07-23T23:45:03;97586.22;;;19.99;59.13
73280;BME280;61511;49.286;9.700;2022-07-23T23:47:31;97593.16;;;20.00;59.44
73280;BME280;61511;49.286;9.700;2022-07-23T23:50:00;97595.41;;;20.07;59.16
73280;BME280;61511;49.286;9.700;2022-07-23T23:52:30;97590.34;;;20.05;59.08
73280;BME280;61511;49.286;9.700;2022-07-23T23:54:58;97593.81;;;20.06;59.19
73280;BME280;61511;49.286;9.700;2022-07-23T23:57:26;97591.13;;;20.06;59.64
73280;BME280;61511;49.286;9.700;2022-07-23T23:59:54;97587.16;;;20.03;59.57
